Time;durP1;ratioP1;P1;durP2;ratioP2;P2;SDS_P1;SDS_P2;PMS_P1;PMS_P2;Temp;Humidity;BMP_temperature;BMP_pressure;BME280_temperature;BME280_humidity;BME280_pressure;Samples;Min_cycle;Max_cycle;Signal;HPM_P1;HPM_P2
2022/10/28 00:01:07;;;;;;;20.05;8.93;;;13.80;99.90;;;;;;5105455;28;20081;-80
2022/10/28 00:03:37;;;;;;;28.83;9.80;;;13.90;99.90;;;;;;5102598;27;20035;-78
2022/10/28 00:06:05;;;;;;;19.40;9.77;;;13.70;99.90;;;;;;5080962;28;20039;-80
2022/10/28 00:08:31;;;;;;;26.10;10.20;;;13.70;99.90;;;;;;5079378;27;20091;-79
2022/10/28 00:11:13;;;;;;;19.80;9.65;;;13.80;99.90;;;;;;5086778;28;20093;-80
2022/10/28 00:13:40;;;;;;;19.33;9.57;;;13.90;99.90;;;;;;5082803;28;20063;-80
2022/10/28 00:16:22;;;;;;;19.70;8.85;;;13.80;99.90;;;;;;5110086;28;20355;-78
2022/10/28 00:18:49;;;;;;;23.00;10.93;;;13.80;99.90;;;;;;5093394;28;20042;-80
2022/10/28 00:21:20;;;;;;;21.15;10.68;;;13.80;99.90;;;;;;5088404;28;20106;-79
2022/10/28 00:23:46;;;;;;;19.95;10.30;;;13.90;99.90;;;;;;5086147;27;20398;-80
2022/10/28 00:26:22;;;;;;;22.45;11.20;;;14.00;99.90;;;;;;5075148;28;20040;-81
2022/10/28 00:28:54;;;;;;;26.27;10.52;;;14.10;99.90;;;;;;5088404;28;20172;-80
2022/10/28 00:31:22;;;;;;;25.23;11.32;;;14.10;99.90;;;;;;5065246;28;20546;-79
2022/10/28 00:33:48;;;;;;;27.45;11.60;;;14.10;99.90;;;;;;5072521;28;20036;-79
2022/10/28 00:36:21;;;;;;;28.95;11.30;;;14.30;99.90;;;;;;5074513;28;20577;-78
2022/10/28 00:38:48;;;;;;;27.60;10.85;;;14.20;99.90;;;;;;5105577;28;20389;-80
2022/10/28 00:41:18;;;;;;;22.17;10.73;;;14.30;99.90;;;;;;5085270;27;20104;-79
2022/10/28 00:43:47;;;;;;;23.15;10.82;;;14.40;99.90;;;;;;5086782;28;20466;-80
2022/10/28 00:46:43;;;;;;;22.02;10.38;;;14.20;99.90;;;;;;5087793;28;20108;-79
2022/10/28 00:49:08;;;;;;;;;;;14.40;99.90;;;;;;5102758;27;20043;-79
2022/10/28 00:51:34;;;;;;;24.60;10.50;;;14.30;99.90;;;;;;5085689;28;20235;-78
2022/10/28 00:54:03;;;;;;;19.02;10.55;;;14.40;99.90;;;;;;5088528;28;20032;-80
2022/10/28 00:56:37;;;;;;;23.35;10.57;;;14.40;99.90;;;;;;5104716;28;20039;-78
2022/10/28 00:59:07;;;;;;;31.08;11.18;;;14.60;99.90;;;;;;5090323;28;20339;-80
2022/10/28 01:01:33;;;;;;;28.30;11.10;;;14.50;99.90;;;;;;5070900;28;20044;-79
2022/10/28 01:04:00;;;;;;;26.52;10.45;;;14.50;99.90;;;;;;5091122;28;20079;-79
2022/10/28 01:06:27;;;;;;;25.85;10.55;;;14.50;99.90;;;;;;5074411;28;20043;-79
2022/10/28 01:08:53;;;;;;;25.50;10.60;;;14.60;99.90;;;;;;5088530;27;20922;-80
2022/10/28 01:11:27;;;;;;;23.38;10.20;;;14.70;99.90;;;;;;5086924;28;20039;-80
2022/10/28 01:14:05;;;;;;;24.25;9.90;;;14.60;99.90;;;;;;5084675;28;20174;-79
2022/10/28 01:16:58;;;;;;;26.95;10.48;;;14.70;99.90;;;;;;5087599;28;20033;-80
2022/10/28 01:20:01;;;;;;;23.45;10.68;;;14.60;99.90;;;;;;5084871;27;20058;-78
2022/10/28 01:22:40;;;;;;;27.02;10.82;;;14.50;99.90;;;;;;5085721;27;20039;-78
2022/10/28 01:25:08;;;;;;;24.90;10.75;;;14.50;99.90;;;;;;5074986;28;20039;-80
2022/10/28 01:28:07;;;;;;;23.52;10.45;;;14.50;99.90;;;;;;5074794;28;20475;-80
2022/10/28 01:30:53;;;;;;;23.80;11.30;;;14.50;99.90;;;;;;5087472;28;20031;-79
2022/10/28 01:33:37;;;;;;;20.13;10.25;;;14.40;99.90;;;;;;5085511;28;20044;-80
2022/10/28 01:36:23;;;;;;;31.33;10.77;;;14.30;99.90;;;;;;5069366;28;20143;-79
2022/10/28 01:38:48;;;;;;;23.00;9.95;;;14.30;99.90;;;;;;5002657;28;20397;-80
2022/10/28 01:41:26;;;;;;;20.70;10.20;;;14.30;99.90;;;;;;5011052;28;20049;-80
2022/10/28 01:44:16;;;;;;;22.73;9.75;;;14.10;99.90;;;;;;5013503;28;20251;-79
2022/10/28 01:47:13;;;;;;;25.13;10.77;;;14.00;99.90;;;;;;5005129;28;20511;-78
2022/10/28 01:49:59;;;;;;;21.67;10.80;;;13.90;99.90;;;;;;4992949;28;20131;-80
2022/10/28 01:52:27;;;;;;;26.10;10.93;;;13.90;99.90;;;;;;5008128;28;20049;-79
2022/10/28 01:55:12;;;;;;;25.38;10.48;;;14.00;99.90;;;;;;5026053;28;20038;-79
2022/10/28 01:57:39;;;;;;;;;;;13.90;99.90;;;;;;4982599;28;20045;-80
2022/10/28 02:00:06;;;;;;;22.85;10.70;;;13.90;99.90;;;;;;5006099;28;19921;-80
2022/10/28 02:02:34;;;;;;;23.85;11.25;;;13.70;99.90;;;;;;5003594;28;20123;-79
2022/10/28 02:05:40;;;;;;;25.05;11.13;;;13.60;99.90;;;;;;5006119;28;20447;-79
2022/10/28 02:08:17;;;;;;;25.45;11.00;;;13.80;99.90;;;;;;5004618;28;20091;-79
2022/10/28 02:11:01;;;;;;;25.42;10.75;;;13.60;99.90;;;;;;5006141;28;20381;-80
2022/10/28 02:13:50;;;;;;;29.58;11.20;;;13.70;99.90;;;;;;5005244;28;20053;-80
2022/10/28 02:16:25;;;;;;;22.30;9.88;;;13.60;99.90;;;;;;5054254;28;20526;-78
2022/10/28 02:19:09;;;;;;;20.55;10.63;;;13.60;99.90;;;;;;5087207;28;20027;-78
2022/10/28 02:22:02;;;;;;;27.23;10.50;;;13.40;99.90;;;;;;5067766;28;20112;-80
2022/10/28 02:24:42;;;;;;;26.02;10.98;;;13.40;99.90;;;;;;5066080;28;22164;-80
2022/10/28 02:27:12;;;;;;;22.30;10.75;;;13.30;99.90;;;;;;5060826;28;20039;-79
2022/10/28 02:29:48;;;;;;;23.13;10.90;;;13.30;99.90;;;;;;5067999;28;20032;-79
2022/10/28 02:32:20;;;;;;;24.25;10.75;;;13.40;99.90;;;;;;5065498;27;20140;-79
2022/10/28 02:34:49;;;;;;;18.75;9.93;;;13.30;99.90;;;;;;5060258;28;20039;-78
2022/10/28 02:37:26;;;;;;;22.27;11.68;;;13.20;99.90;;;;;;5078573;28;20036;-79
2022/10/28 02:40:00;;;;;;;25.70;11.75;;;13.10;99.90;;;;;;5064540;28;20071;-79
2022/10/28 02:42:35;;;;;;;30.58;11.45;;;13.30;99.90;;;;;;5099606;28;20463;-79
2022/10/28 02:45:15;;;;;;;25.58;12.13;;;13.30;99.90;;;;;;5085013;27;20056;-79
2022/10/28 02:47:47;;;;;;;30.98;12.30;;;13.40;99.90;;;;;;5063543;28;20520;-79
2022/10/28 02:50:16;;;;;;;28.98;12.95;;;13.40;99.90;;;;;;5080028;28;20059;-80
2022/10/28 02:52:47;;;;;;;33.85;13.32;;;13.50;99.90;;;;;;5070440;28;20135;-80
2022/10/28 02:55:13;;;;;;;25.05;13.48;;;13.30;99.90;;;;;;5087590;28;20082;-80
2022/10/28 02:57:43;;;;;;;27.23;13.20;;;13.30;99.90;;;;;;5082611;28;20602;-80
2022/10/28 03:00:15;;;;;;;21.83;13.25;;;13.40;99.90;;;;;;5078619;28;20063;-79
2022/10/28 03:02:41;;;;;;;27.08;13.18;;;13.40;99.90;;;;;;5083191;28;20162;-80
2022/10/28 03:05:07;;;;;;;28.88;13.30;;;13.40;99.90;;;;;;5082914;28;20541;-78
2022/10/28 03:07:32;;;;;;;35.92;14.98;;;13.30;99.90;;;;;;5087974;28;20031;-78
2022/10/28 03:09:58;;;;;;;32.00;13.75;;;13.40;99.90;;;;;;5073244;28;20520;-78
2022/10/28 03:12:24;;;;;;;34.35;14.85;;;13.40;99.90;;;;;;5088349;28;20061;-80
2022/10/28 03:14:49;;;;;;;30.90;14.35;;;13.50;99.90;;;;;;5100020;28;20655;-80
2022/10/28 03:17:15;;;;;;;36.53;14.80;;;13.40;99.90;;;;;;5090194;28;20035;-78
2022/10/28 03:19:41;;;;;;;37.45;15.15;;;13.30;99.90;;;;;;5073980;28;20043;-79
2022/10/28 03:22:06;;;;;;;32.20;15.73;;;13.50;99.90;;;;;;5071329;28;20135;-79
2022/10/28 03:24:32;;;;;;;30.90;14.25;;;13.40;99.90;;;;;;5081642;28;20044;-79
2022/10/28 03:26:58;;;;;;;26.20;15.40;;;13.30;99.90;;;;;;5077933;28;20108;-79
2022/10/28 03:29:24;;;;;;;32.10;15.65;;;13.30;99.90;;;;;;5064597;28;20067;-79
2022/10/28 03:31:50;;;;;;;34.65;15.65;;;13.30;99.90;;;;;;5083621;28;20466;-79
2022/10/28 03:34:46;;;;;;;26.33;15.88;;;13.30;99.90;;;;;;5079928;28;20032;-80
2022/10/28 03:37:13;;;;;;;34.92;15.98;;;13.30;99.90;;;;;;5070234;28;20067;-79
2022/10/28 03:39:39;;;;;;;29.73;15.80;;;13.40;99.90;;;;;;5079910;28;20035;-80
2022/10/28 03:42:04;;;;;;;30.38;16.35;;;13.40;99.90;;;;;;5065483;28;20051;-79
2022/10/28 03:44:30;;;;;;;29.95;16.52;;;13.20;99.90;;;;;;5067467;28;20035;-79
2022/10/28 03:46:56;;;;;;;32.85;16.50;;;13.40;99.90;;;;;;5079352;28;20042;-79
2022/10/28 03:49:21;;;;;;;32.58;16.95;;;13.40;99.90;;;;;;5085147;28;20035;-79
2022/10/28 03:51:47;;;;;;;36.95;18.08;;;13.20;99.90;;;;;;5072888;28;20474;-80
2022/10/28 03:54:13;;;;;;;35.95;18.10;;;13.40;99.90;;;;;;5060722;28;20477;-79
2022/10/28 03:56:39;;;;;;;44.55;18.50;;;13.40;99.90;;;;;;5067831;28;20127;-80
2022/10/28 03:59:07;;;;;;;41.15;18.13;;;13.30;99.90;;;;;;5066096;28;20039;-80
2022/10/28 04:01:33;;;;;;;41.17;18.73;;;13.20;99.90;;;;;;5055486;27;20039;-80
2022/10/28 04:03:58;;;;;;;41.00;18.92;;;13.40;99.90;;;;;;5088590;27;20103;-80
2022/10/28 04:06:24;;;;;;;34.92;18.30;;;13.30;99.90;;;;;;5070376;28;20039;-80
2022/10/28 04:08:50;;;;;;;43.20;18.60;;;13.30;99.90;;;;;;5093294;27;20489;-79
2022/10/28 04:11:15;;;;;;;37.80;18.42;;;13.20;99.90;;;;;;5070961;28;20617;-80
2022/10/28 04:13:41;;;;;;;40.85;18.48;;;13.20;99.90;;;;;;5070229;28;20055;-80
2022/10/28 04:16:07;;;;;;;46.13;19.80;;;13.10;99.90;;;;;;5080590;27;20035;-80
2022/10/28 04:18:34;;;;;;;33.35;17.33;;;13.10;99.90;;;;;;5084077;28;20097;-80
2022/10/28 04:21:00;;;;;;;48.30;20.63;;;13.20;99.90;;;;;;5071492;27;20027;-79
2022/10/28 04:23:25;;;;;;;41.22;19.17;;;13.20;99.90;;;;;;5110788;27;20044;-80
2022/10/28 04:25:53;;;;;;;42.20;19.20;;;13.20;99.90;;;;;;5108311;27;20134;-80
2022/10/28 04:28:19;;;;;;;41.80;20.10;;;13.30;99.90;;;;;;5069395;27;20134;-79
2022/10/28 04:30:48;;;;;;;43.03;19.92;;;13.10;99.90;;;;;;5055779;28;20135;-77
2022/10/28 04:35:25;;;;;;;44.72;20.60;;;13.50;99.90;;;;;;5133415;27;20179;-81
2022/10/28 04:37:51;;;;;;;33.85;19.73;;;13.20;99.90;;;;;;5083876;28;20434;-80
2022/10/28 04:40:17;;;;;;;55.53;21.10;;;13.20;99.90;;;;;;5065332;28;20053;-80
2022/10/28 04:42:42;;;;;;;46.35;21.85;;;13.30;99.90;;;;;;5080063;28;20035;-80
2022/10/28 04:45:09;;;;;;;38.25;19.92;;;13.20;99.90;;;;;;5066018;28;20044;-80
2022/10/28 04:47:35;;;;;;;43.58;20.88;;;13.20;99.90;;;;;;5080296;28;20123;-79
2022/10/28 04:50:02;;;;;;;48.78;20.67;;;13.20;99.90;;;;;;5079618;28;20706;-80
2022/10/28 04:52:28;;;;;;;44.22;21.15;;;13.10;99.90;;;;;;5085081;28;20040;-78
2022/10/28 04:54:54;;;;;;;52.70;21.90;;;13.20;99.90;;;;;;5061724;28;20036;-79
2022/10/28 04:57:19;;;;;;;47.90;22.08;;;13.20;99.90;;;;;;5086059;28;20131;-80
2022/10/28 04:59:45;;;;;;;54.17;21.67;;;13.20;99.90;;;;;;5059894;28;20431;-79
2022/10/28 05:02:11;;;;;;;45.58;21.05;;;13.20;99.90;;;;;;5072870;28;20040;-79
2022/10/28 05:05:26;;;;;;;42.05;21.42;;;13.20;99.90;;;;;;5086888;28;20100;-78
2022/10/28 05:07:53;;;;;;;43.22;20.67;;;13.40;99.90;;;;;;5074329;28;20045;-81
2022/10/28 05:10:19;;;;;;;45.88;21.30;;;13.30;99.90;;;;;;5080285;28;20062;-79
2022/10/28 05:12:45;;;;;;;41.47;20.42;;;13.40;99.90;;;;;;5084963;28;20130;-79
2022/10/28 05:15:11;;;;;;;53.42;19.77;;;13.40;99.90;;;;;;5066021;28;20460;-79
2022/10/28 05:17:47;;;;;;;43.30;19.85;;;13.20;99.90;;;;;;5071754;28;20040;-79
2022/10/28 05:20:15;;;;;;;44.88;20.42;;;13.30;99.90;;;;;;5062366;28;20375;-79
2022/10/28 05:22:53;;;;;;;44.30;20.25;;;13.30;99.90;;;;;;5081387;28;20033;-79
2022/10/28 05:25:20;;;;;;;38.20;19.40;;;13.20;99.90;;;;;;5109870;27;20044;-80
2022/10/28 05:27:46;;;;;;;43.13;19.55;;;13.20;99.90;;;;;;5060176;28;20040;-81
2022/10/28 05:30:13;;;;;;;48.30;19.20;;;13.20;99.90;;;;;;5075914;28;20044;-80
2022/10/28 05:32:38;;;;;;;37.47;19.73;;;13.20;99.90;;;;;;5076300;28;20467;-79
2022/10/28 05:35:05;;;;;;;39.40;18.42;;;13.20;99.90;;;;;;5085683;28;20080;-79
2022/10/28 05:37:30;;;;;;;41.22;19.40;;;13.20;99.90;;;;;;5072947;28;20044;-80
2022/10/28 05:39:56;;;;;;;42.70;18.52;;;13.10;99.90;;;;;;5083814;28;20037;-81
2022/10/28 05:42:22;;;;;;;37.83;18.75;;;13.10;99.90;;;;;;5058696;28;20041;-82
2022/10/28 05:44:47;;;;;;;38.83;18.17;;;13.20;99.90;;;;;;5081316;28;20117;-81
2022/10/28 05:47:13;;;;;;;43.70;19.40;;;13.20;99.90;;;;;;5080327;28;20132;-80
2022/10/28 05:49:51;;;;;;;37.53;17.83;;;13.10;99.90;;;;;;5077837;28;20045;-79
2022/10/28 05:52:16;;;;;;;42.67;18.58;;;13.20;99.90;;;;;;5058836;28;20067;-79
2022/10/28 05:54:44;;;;;;;37.85;18.20;;;13.20;99.90;;;;;;5055170;28;20040;-79
2022/10/28 05:57:10;;;;;;;41.50;18.05;;;13.30;99.90;;;;;;5056902;28;20213;-81
2022/10/28 05:59:36;;;;;;;38.70;18.65;;;13.20;99.90;;;;;;5039690;28;20063;-80
2022/10/28 06:02:02;;;;;;;41.83;18.40;;;13.10;99.90;;;;;;5053830;28;20470;-80
2022/10/28 06:04:28;;;;;;;43.38;17.73;;;13.20;99.90;;;;;;5062157;28;20942;-79
2022/10/28 06:06:55;;;;;;;39.25;18.05;;;13.20;99.90;;;;;;5050740;28;20148;-79
2022/10/28 06:09:20;;;;;;;43.70;18.33;;;13.10;99.90;;;;;;5077486;28;20412;-78
2022/10/28 06:11:46;;;;;;;34.55;18.42;;;13.20;99.90;;;;;;5061852;28;20044;-79
2022/10/28 06:14:12;;;;;;;42.08;19.25;;;13.10;99.90;;;;;;5054936;28;20120;-79
2022/10/28 06:16:37;;;;;;;39.80;18.55;;;13.10;99.90;;;;;;5064716;28;20045;-78
2022/10/28 06:19:03;;;;;;;42.05;17.70;;;13.10;99.90;;;;;;5068682;28;20033;-78
2022/10/28 06:21:32;;;;;;;41.08;18.17;;;13.10;99.90;;;;;;5072641;28;20041;-79
2022/10/28 06:23:57;;;;;;;34.08;17.90;;;13.10;99.90;;;;;;5060940;28;20048;-80
2022/10/28 06:26:23;;;;;;;38.88;18.20;;;13.00;99.90;;;;;;5070341;28;20480;-79
2022/10/28 06:28:48;;;;;;;46.28;18.38;;;13.00;99.90;;;;;;5066797;28;20052;-79
2022/10/28 06:31:14;;;;;;;40.80;18.25;;;12.90;99.90;;;;;;5056881;28;20055;-81
2022/10/28 06:33:40;;;;;;;41.15;18.05;;;12.90;99.90;;;;;;5043533;28;20162;-79
2022/10/28 06:36:06;;;;;;;36.88;18.02;;;13.00;99.90;;;;;;5050604;28;20033;-81
2022/10/28 06:38:32;;;;;;;37.60;17.83;;;12.90;99.90;;;;;;5048405;28;20499;-80
2022/10/28 06:41:00;;;;;;;42.35;17.52;;;12.90;99.90;;;;;;5036528;28;20053;-81
2022/10/28 06:43:26;;;;;;;35.45;17.60;;;12.90;99.90;;;;;;5039034;28;20384;-81
2022/10/28 06:45:55;;;;;;;42.45;18.67;;;12.90;99.90;;;;;;5034140;28;20060;-80
2022/10/28 06:48:21;;;;;;;41.00;17.52;;;13.00;99.90;;;;;;5032907;28;20053;-81
2022/10/28 06:50:47;;;;;;;33.83;17.50;;;13.00;99.90;;;;;;5027656;28;20102;-80
2022/10/28 06:53:13;;;;;;;40.45;17.88;;;13.00;99.90;;;;;;5026621;28;20496;-80
2022/10/28 06:55:39;;;;;;;49.05;18.83;;;13.00;99.90;;;;;;5043684;28;20068;-80
2022/10/28 06:58:04;;;;;;;44.60;17.48;;;13.00;99.90;;;;;;5041715;28;20052;-79
2022/10/28 07:00:32;;;;;;;40.90;17.23;;;13.00;99.90;;;;;;5030101;28;20044;-78
2022/10/28 07:02:57;;;;;;;34.10;17.25;;;13.20;99.90;;;;;;5031623;28;20068;-79
2022/10/28 07:05:26;;;;;;;45.55;17.67;;;13.10;99.90;;;;;;5013919;28;20025;-78
2022/10/28 07:07:52;;;;;;;34.60;17.00;;;13.20;99.90;;;;;;5011539;28;20122;-79
2022/10/28 07:10:19;;;;;;;36.08;17.38;;;13.20;99.90;;;;;;5019921;28;22061;-79
2022/10/28 07:12:45;;;;;;;39.92;16.58;;;13.20;99.90;;;;;;5015749;28;20044;-80
2022/10/28 07:15:10;;;;;;;37.33;16.65;;;13.30;99.90;;;;;;5037909;28;20141;-80
2022/10/28 07:17:37;;;;;;;37.08;16.05;;;13.30;99.90;;;;;;5021888;28;20414;-83
2022/10/28 07:20:03;;;;;;;35.47;16.20;;;13.50;99.90;;;;;;5027372;28;20040;-81
2022/10/28 07:22:29;;;;;;;36.88;15.60;;;13.40;99.90;;;;;;5026502;28;20587;-81
2022/10/28 07:24:54;;;;;;;29.38;15.38;;;13.40;99.90;;;;;;5031575;28;20056;-80
2022/10/28 07:27:22;;;;;;;30.80;15.45;;;13.50;99.90;;;;;;5024240;28;20063;-83
2022/10/28 07:29:47;;;;;;;35.65;16.05;;;13.50;99.90;;;;;;5041534;28;20368;-79
2022/10/28 07:32:16;;;;;;;31.58;14.80;;;13.60;99.90;;;;;;5024260;28;20041;-81
2022/10/28 07:34:42;;;;;;;30.88;14.77;;;13.50;99.90;;;;;;5066093;28;20094;-78
2022/10/28 07:37:09;;;;;;;31.13;14.13;;;13.60;99.90;;;;;;5073901;28;20486;-79
2022/10/28 07:39:35;;;;;;;27.13;13.77;;;13.70;99.90;;;;;;5074994;28;20040;-81
2022/10/28 07:42:01;;;;;;;28.88;14.07;;;13.60;99.90;;;;;;5052803;28;20090;-80
2022/10/28 07:44:27;;;;;;;29.90;14.18;;;13.80;99.90;;;;;;5056864;28;20202;-79
2022/10/28 07:46:52;;;;;;;31.77;14.00;;;13.70;99.90;;;;;;5056021;28;20048;-78
2022/10/28 07:49:18;;;;;;;31.92;13.15;;;13.90;99.90;;;;;;5054230;28;20495;-81
2022/10/28 07:51:44;;;;;;;26.95;12.55;;;13.90;99.90;;;;;;5061190;28;20037;-81
2022/10/28 07:54:11;;;;;;;30.35;12.50;;;14.00;99.90;;;;;;5061601;28;20495;-83
2022/10/28 07:56:37;;;;;;;32.60;12.50;;;14.20;99.90;;;;;;5045758;28;20964;-82
2022/10/28 07:59:03;;;;;;;33.33;11.68;;;14.20;99.90;;;;;;5056874;28;20055;-80
2022/10/28 08:01:28;;;;;;;22.65;10.82;;;14.30;99.90;;;;;;5038715;28;20036;-84
2022/10/28 08:03:54;;;;;;;27.00;11.45;;;14.30;99.90;;;;;;5058008;28;20153;-79
2022/10/28 08:06:20;;;;;;;27.70;11.23;;;14.50;99.90;;;;;;5039456;28;20057;-81
2022/10/28 08:08:47;;;;;;;28.55;11.25;;;14.50;99.90;;;;;;5065352;28;20073;-81
2022/10/28 08:11:15;;;;;;;25.48;10.27;;;14.60;99.90;;;;;;5068067;28;20056;-78
2022/10/28 08:13:41;;;;;;;22.17;9.88;;;14.70;99.90;;;;;;5060627;28;20041;-80
2022/10/28 08:16:08;;;;;;;26.67;10.20;;;14.70;99.90;;;;;;5065767;28;20054;-83
2022/10/28 08:18:34;;;;;;;24.42;10.15;;;14.70;99.90;;;;;;5060315;28;20049;-81
2022/10/28 08:21:01;;;;;;;28.85;10.18;;;14.80;99.90;;;;;;5046708;28;20160;-82
2022/10/28 08:23:28;;;;;;;33.13;10.02;;;14.80;99.90;;;;;;5059716;28;20045;-79
2022/10/28 08:25:54;;;;;;;30.85;10.40;;;15.00;99.90;;;;;;5079841;28;20085;-81
2022/10/28 08:28:20;;;;;;;24.58;9.55;;;14.90;99.90;;;;;;5042427;28;20053;-79
2022/10/28 08:30:46;;;;;;;28.08;9.30;;;15.00;99.90;;;;;;5060685;28;20127;-79
2022/10/28 08:33:12;;;;;;;22.75;8.65;;;15.10;99.90;;;;;;5063410;28;20442;-80
2022/10/28 08:36:11;;;;;;;24.77;8.90;;;15.20;99.90;;;;;;5051898;28;20111;-80
2022/10/28 08:38:37;;;;;;;22.48;8.52;;;15.30;99.90;;;;;;5032271;28;20045;-82
2022/10/28 08:41:09;;;;;;;24.65;8.68;;;15.30;99.90;;;;;;5050223;28;20094;-81
2022/10/28 08:43:59;;;;;;;24.05;8.00;;;15.40;99.90;;;;;;5048077;28;20033;-81
2022/10/28 08:46:47;;;;;;;23.92;7.97;;;15.50;99.90;;;;;;5036852;28;20087;-82
2022/10/28 08:49:17;;;;;;;16.58;7.43;;;15.50;99.90;;;;;;5059130;28;20437;-80
2022/10/28 08:52:15;;;;;;;19.10;7.72;;;15.80;99.90;;;;;;5052486;28;20515;-81
2022/10/28 08:54:56;;;;;;;19.65;7.78;;;15.90;99.90;;;;;;5035358;28;20110;-80
2022/10/28 08:57:36;;;;;;;22.25;6.97;;;16.00;99.90;;;;;;5070735;28;20063;-78
2022/10/28 09:00:07;;;;;;;22.48;7.13;;;16.00;99.90;;;;;;5052801;28;20554;-80
2022/10/28 09:02:56;;;;;;;19.17;7.32;;;16.00;99.90;;;;;;5016568;28;20045;-80
2022/10/28 09:05:24;;;;;;;27.88;6.97;;;16.10;99.90;;;;;;5018382;28;20049;-80
2022/10/28 09:07:51;;;;;;;23.20;7.75;;;16.30;99.90;;;;;;5050008;28;20198;-80
2022/10/28 09:10:25;;;;;;;21.13;7.13;;;16.20;99.90;;;;;;5050377;28;20045;-83
2022/10/28 09:13:27;;;;;;;22.17;6.88;;;16.20;99.90;;;;;;5052311;28;20459;-79
2022/10/28 09:16:11;;;;;;;18.50;6.45;;;16.30;99.90;;;;;;5053378;28;20045;-78
2022/10/28 09:18:54;;;;;;;18.57;7.07;;;16.30;99.90;;;;;;5037285;28;20037;-80
2022/10/28 09:21:44;;;;;;;27.35;7.57;;;16.30;99.90;;;;;;5036216;28;20052;-80
2022/10/28 09:24:34;;;;;;;32.38;6.88;;;16.50;99.90;;;;;;5049938;28;20049;-78
2022/10/28 09:27:37;;;;;;;22.02;7.03;;;16.50;99.90;;;;;;5051336;28;20048;-82
2022/10/28 09:30:21;;;;;;;16.77;6.32;;;16.50;99.90;;;;;;5047433;28;20380;-81
2022/10/28 09:33:20;;;;;;;26.30;6.45;;;16.70;99.90;;;;;;5037706;28;20400;-80
2022/10/28 09:35:48;;;;;;;16.40;6.32;;;16.60;99.90;;;;;;4953171;28;20055;-79
2022/10/28 09:38:33;;;;;;;21.70;5.95;;;16.80;99.90;;;;;;4954056;28;20043;-80
2022/10/28 09:41:29;;;;;;;19.05;6.35;;;16.80;99.90;;;;;;4936780;28;20062;-80
2022/10/28 09:44:06;;;;;;;18.17;6.50;;;16.90;99.90;;;;;;4922031;28;20058;-81
2022/10/28 09:46:32;;;;;;;19.48;5.75;;;16.90;99.90;;;;;;4953519;28;20043;-79
2022/10/28 09:49:03;;;;;;;21.42;6.78;;;16.90;99.90;;;;;;4956590;28;20133;-80
2022/10/28 09:51:36;;;;;;;19.92;6.22;;;16.80;99.90;;;;;;4957360;28;20473;-81
2022/10/28 09:54:02;;;;;;;26.70;6.43;;;17.00;99.90;;;;;;4940886;28;20073;-82
2022/10/28 09:56:30;;;;;;;21.10;6.35;;;17.00;99.90;;;;;;4957507;28;20605;-80
2022/10/28 09:58:59;;;;;;;21.95;5.68;;;17.00;99.90;;;;;;4955037;28;20043;-80
2022/10/28 10:01:33;;;;;;;20.40;6.40;;;17.10;99.90;;;;;;4954379;28;20042;-80
2022/10/28 10:03:59;;;;;;;25.13;6.00;;;17.10;99.90;;;;;;4956519;28;20051;-83
2022/10/28 10:06:27;;;;;;;21.65;6.38;;;17.20;99.90;;;;;;4940714;28;20077;-81
2022/10/28 10:08:55;;;;;;;15.95;6.05;;;17.10;99.90;;;;;;4956670;28;20058;-80
2022/10/28 10:11:39;;;;;;;24.85;7.15;;;17.30;99.90;;;;;;4956881;28;20158;-80
2022/10/28 10:14:11;;;;;;;20.65;6.03;;;17.20;99.90;;;;;;5064980;28;20060;-81
2022/10/28 10:17:01;;;;;;;20.02;6.45;;;17.20;99.90;;;;;;5050115;28;20170;-78
2022/10/28 10:19:27;;;;;;;30.23;9.45;;;17.40;99.90;;;;;;5047905;28;20049;-82
2022/10/28 10:21:55;;;;;;;31.75;12.50;;;17.50;99.90;;;;;;5029764;28;20056;-80
2022/10/28 10:24:27;;;;;;;22.73;8.07;;;17.60;99.90;;;;;;5030901;28;20056;-79
2022/10/28 10:26:53;;;;;;;23.45;8.98;;;17.60;99.90;;;;;;5047803;28;20053;-79
2022/10/28 10:29:21;;;;;;;21.13;6.93;;;17.60;99.90;;;;;;5029388;28;20064;-79
2022/10/28 10:32:01;;;;;;;19.95;8.57;;;17.80;99.90;;;;;;5032402;28;20113;-79
2022/10/28 10:34:28;;;;;;;28.08;9.85;;;17.70;99.90;;;;;;5027191;28;20048;-78
2022/10/28 10:36:55;;;;;;;49.90;17.40;;;17.70;99.90;;;;;;5079125;28;20152;-82
2022/10/28 10:39:36;;;;;;;21.30;7.53;;;17.90;99.90;;;;;;5077566;28;20049;-79
2022/10/28 10:42:02;;;;;;;26.10;8.77;;;18.00;99.90;;;;;;5045438;28;20099;-77
2022/10/28 10:44:34;;;;;;;16.58;6.22;;;17.90;99.90;;;;;;5057844;28;20052;-77
2022/10/28 10:47:01;;;;;;;23.30;6.80;;;18.10;99.90;;;;;;5062837;28;20060;-80
2022/10/28 10:49:27;;;;;;;23.25;6.10;;;18.10;99.90;;;;;;5049828;28;20072;-79
2022/10/28 10:51:56;;;;;;;20.00;5.63;;;18.10;99.90;;;;;;5056224;28;21752;-77
2022/10/28 10:54:23;;;;;;;19.70;5.82;;;18.30;99.90;;;;;;5047729;28;20079;-79
2022/10/28 10:56:49;;;;;;;18.85;5.60;;;18.30;99.90;;;;;;5069863;28;20052;-81
2022/10/28 10:59:39;;;;;;;23.05;5.88;;;18.30;99.90;;;;;;5044164;28;20139;-79
2022/10/28 11:02:21;;;;;;;25.42;6.65;;;18.40;99.90;;;;;;5060268;28;20047;-81
2022/10/28 11:04:52;;;;;;;25.23;6.78;;;18.30;99.90;;;;;;5063182;28;20502;-78
2022/10/28 11:07:18;;;;;;;21.42;6.22;;;18.40;99.90;;;;;;5057311;28;20119;-79
2022/10/28 11:09:47;;;;;;;18.25;5.63;;;18.40;99.90;;;;;;5069022;28;20052;-78
2022/10/28 11:12:30;;;;;;;22.58;6.18;;;18.40;99.90;;;;;;5061228;28;20076;-79
2022/10/28 11:15:23;;;;;;;19.45;6.10;;;18.60;99.90;;;;;;5068564;28;20055;-78
2022/10/28 11:18:15;;;;;;;24.17;5.88;;;18.80;99.90;;;;;;5038951;28;20190;-79
2022/10/28 11:21:19;;;;;;;28.27;5.63;;;18.70;99.90;;;;;;5052543;28;20048;-78
2022/10/28 11:23:53;;;;;;;18.40;5.70;;;18.80;99.90;;;;;;5036417;28;20115;-78
2022/10/28 11:26:22;;;;;;;29.55;6.57;;;18.80;99.90;;;;;;5051894;28;20052;-81
2022/10/28 11:29:07;;;;;;;20.30;5.15;;;18.90;99.90;;;;;;5065396;28;20047;-81
2022/10/28 11:31:46;;;;;;;24.88;6.15;;;19.10;99.90;;;;;;5055808;28;20047;-79
2022/10/28 11:34:44;;;;;;;22.67;5.43;;;19.10;99.90;;;;;;5046576;28;20088;-78
2022/10/28 11:37:34;;;;;;;18.70;5.78;;;19.10;99.90;;;;;;5028381;28;20044;-79
2022/10/28 11:40:26;;;;;;;17.88;5.63;;;19.20;99.90;;;;;;5036575;28;20098;-78
2022/10/28 11:43:30;;;;;;;24.42;5.38;;;19.20;99.90;;;;;;5039105;28;20091;-78
2022/10/28 11:46:09;;;;;;;22.45;5.38;;;19.30;99.90;;;;;;4977862;28;20077;-80
2022/10/28 11:48:50;;;;;;;22.30;5.57;;;19.30;99.90;;;;;;4975671;28;20068;-78
2022/10/28 11:51:44;;;;;;;20.95;5.50;;;19.50;99.90;;;;;;4983887;28;20042;-80
2022/10/28 11:54:15;;;;;;;17.30;5.18;;;19.50;99.90;;;;;;4967719;28;20140;-79
2022/10/28 11:56:53;;;;;;;26.00;6.05;;;19.70;99.90;;;;;;4982418;28;20132;-78
2022/10/28 11:59:56;;;;;;;20.23;5.63;;;19.60;99.90;;;;;;4983559;28;20041;-77
2022/10/28 12:02:50;;;;;;;14.73;5.43;;;19.80;99.90;;;;;;4965923;28;20088;-78
2022/10/28 12:05:33;;;;;;;23.02;5.90;;;19.90;99.90;;;;;;4986866;28;20046;-78
2022/10/28 12:08:14;;;;;;;20.05;5.38;;;19.90;99.90;;;;;;4991800;28;20046;-80
2022/10/28 12:10:49;;;;;;;27.90;6.78;;;19.90;99.90;;;;;;4993503;28;20370;-79
2022/10/28 12:13:21;;;;;;;16.88;5.30;;;19.90;99.90;;;;;;4975409;28;20237;-79
2022/10/28 12:15:54;;;;;;;22.92;5.20;;;19.80;99.90;;;;;;4979366;28;20055;-79
2022/10/28 12:18:40;;;;;;;19.08;4.95;;;19.80;99.90;;;;;;4992376;28;20057;-80
2022/10/28 12:21:36;;;;;;;19.95;5.32;;;19.80;99.90;;;;;;5037151;28;20045;-79
2022/10/28 12:24:09;;;;;;;17.90;5.00;;;19.70;99.90;;;;;;4956123;28;20062;-78
2022/10/28 12:26:39;;;;;;;23.73;5.97;;;19.70;99.90;;;;;;4980674;28;20050;-80
2022/10/28 12:29:14;;;;;;;22.10;5.13;;;19.60;99.90;;;;;;4950457;28;20488;-78
2022/10/28 12:31:49;;;;;;;21.90;5.45;;;19.60;99.90;;;;;;4969768;28;20046;-79
2022/10/28 12:34:19;;;;;;;24.92;5.25;;;19.60;99.90;;;;;;4955983;28;20130;-77
2022/10/28 12:36:51;;;;;;;20.63;5.72;;;19.60;99.90;;;;;;4961881;28;20147;-77
2022/10/28 12:39:42;;;;;;;16.17;5.43;;;19.60;99.90;;;;;;4970833;28;20129;-77
2022/10/28 12:42:29;;;;;;;21.00;5.18;;;19.50;99.90;;;;;;4972213;28;20419;-78
2022/10/28 12:44:57;;;;;;;18.70;5.30;;;19.50;99.90;;;;;;4972772;28;20062;-77
2022/10/28 12:47:32;;;;;;;22.58;5.60;;;19.50;99.90;;;;;;4970089;28;20168;-78
2022/10/28 12:50:38;;;;;;;32.38;5.65;;;19.50;99.90;;;;;;4967037;28;20131;-78
2022/10/28 12:53:04;;;;;;;23.67;5.50;;;19.40;99.90;;;;;;4966115;28;20086;-78
2022/10/28 12:55:51;;;;;;;17.98;5.38;;;19.50;99.90;;;;;;4971548;28;20054;-80
2022/10/28 12:58:20;;;;;;;26.25;5.43;;;19.50;99.90;;;;;;4971012;28;20078;-79
2022/10/28 13:00:55;;;;;;;18.63;5.47;;;19.40;99.90;;;;;;5006128;28;20433;-79